sensor_id;sensor_type;location;lat;lon;timestamp;pressure;altitude;pressure_sealevel;temperature;humidity
62952;BME280;52163;52.212;-1.002;2022-09-09T00:02:15;99160.35;;;14.71;82.68
62952;BME280;52163;52.212;-1.002;2022-09-09T00:04:53;99161.73;;;14.62;82.65
62952;BME280;52163;52.212;-1.002;2022-09-09T00:07:49;99162.89;;;14.54;83.08
62952;BME280;52163;52.212;-1.002;2022-09-09T00:10:31;99162.81;;;14.49;83.35
62952;BME280;52163;52.212;-1.002;2022-09-09T00:15:40;99170.36;;;14.43;83.62
62952;BME280;52163;52.212;-1.002;2022-09-09T00:18:26;99173.09;;;14.34;83.17
62952;BME280;52163;52.212;-1.002;2022-09-09T00:23:25;99178.84;;;14.22;82.83
62952;BME280;52163;52.212;-1.002;2022-09-09T00:28:34;99177.23;;;14.17;83.35
62952;BME280;52163;52.212;-1.002;2022-09-09T00:31:12;99175.67;;;14.13;83.32
62952;BME280;52163;52.212;-1.002;2022-09-09T00:33:39;99169.58;;;14.06;83.02
62952;BME280;52163;52.212;-1.002;2022-09-09T00:36:13;99171.63;;;14.00;83.09
62952;BME280;52163;52.212;-1.002;2022-09-09T00:38:45;99171.15;;;13.94;83.24
62952;BME280;52163;52.212;-1.002;2022-09-09T00:59:59;99173.25;;;13.83;84.29
62952;BME280;52163;52.212;-1.002;2022-09-09T01:02:36;99173.88;;;13.87;84.59
62952;BME280;52163;52.212;-1.002;2022-09-09T01:05:13;99178.48;;;13.93;84.92
62952;BME280;52163;52.212;-1.002;2022-09-09T01:07:44;99176.98;;;14.00;85.10
62952;BME280;52163;52.212;-1.002;2022-09-09T01:10:35;99175.48;;;14.06;85.24
62952;BME280;52163;52.212;-1.002;2022-09-09T01:13:11;99173.64;;;14.10;85.27
62952;BME280;52163;52.212;-1.002;2022-09-09T01:15:41;99176.11;;;14.16;85.28
62952;BME280;52163;52.212;-1.002;2022-09-09T01:18:12;99177.56;;;14.21;85.28
62952;BME280;52163;52.212;-1.002;2022-09-09T01:21:05;99181.91;;;14.28;85.10
62952;BME280;52163;52.212;-1.002;2022-09-09T01:26:36;99176.73;;;14.39;84.95
62952;BME280;52163;52.212;-1.002;2022-09-09T01:29:08;99174.45;;;14.41;84.87
62952;BME280;52163;52.212;-1.002;2022-09-09T01:34:19;99178.70;;;14.46;84.98
62952;BME280;52163;52.212;-1.002;2022-09-09T01:36:49;99181.02;;;14.50;85.08
62952;BME280;52163;52.212;-1.002;2022-09-09T01:39:18;99181.30;;;14.52;84.68
62952;BME280;52163;52.212;-1.002;2022-09-09T01:41:44;99178.08;;;14.53;84.80
62952;BME280;52163;52.212;-1.002;2022-09-09T01:44:10;99176.19;;;14.54;84.75
62952;BME280;52163;52.212;-1.002;2022-09-09T01:46:36;99177.81;;;14.54;84.74
62952;BME280;52163;52.212;-1.002;2022-09-09T01:49:03;99176.73;;;14.56;84.89
62952;BME280;52163;52.212;-1.002;2022-09-09T01:51:30;99177.38;;;14.56;84.88
62952;BME280;52163;52.212;-1.002;2022-09-09T01:53:56;99179.38;;;14.56;84.76
62952;BME280;52163;52.212;-1.002;2022-09-09T01:56:47;99176.52;;;14.54;84.74
62952;BME280;52163;52.212;-1.002;2022-09-09T02:02:15;99174.59;;;14.54;84.96
62952;BME280;52163;52.212;-1.002;2022-09-09T02:04:43;99173.80;;;14.55;85.10
62952;BME280;52163;52.212;-1.002;2022-09-09T02:09:54;99170.23;;;14.53;84.95
62952;BME280;52163;52.212;-1.002;2022-09-09T02:12:24;99174.25;;;14.50;84.78
62952;BME280;52163;52.212;-1.002;2022-09-09T02:14:55;99172.17;;;14.46;84.61
62952;BME280;52163;52.212;-1.002;2022-09-09T02:17:34;99170.10;;;14.42;84.72
62952;BME280;52163;52.212;-1.002;2022-09-09T02:20:10;99171.41;;;14.37;84.86
62952;BME280;52163;52.212;-1.002;2022-09-09T02:22:39;99173.61;;;14.33;84.80
62952;BME280;52163;52.212;-1.002;2022-09-09T02:25:08;99176.52;;;14.29;84.85
62952;BME280;52163;52.212;-1.002;2022-09-09T02:27:36;99181.29;;;14.23;84.90
62952;BME280;52163;52.212;-1.002;2022-09-09T02:30:03;99175.30;;;14.17;85.23
62952;BME280;52163;52.212;-1.002;2022-09-09T02:32:32;99178.02;;;14.13;85.40
62952;BME280;52163;52.212;-1.002;2022-09-09T02:35:03;99176.09;;;14.09;85.83
62952;BME280;52163;52.212;-1.002;2022-09-09T02:37:39;99177.25;;;14.08;86.00
62952;BME280;52163;52.212;-1.002;2022-09-09T02:40:07;99181.07;;;14.07;86.01
62952;BME280;52163;52.212;-1.002;2022-09-09T02:42:44;99185.58;;;14.06;85.95
62952;BME280;52163;52.212;-1.002;2022-09-09T02:45:13;99189.17;;;14.02;86.14
62952;BME280;52163;52.212;-1.002;2022-09-09T02:48:03;99186.94;;;14.00;86.28
62952;BME280;52163;52.212;-1.002;2022-09-09T02:50:41;99189.41;;;13.96;86.19
62952;BME280;52163;52.212;-1.002;2022-09-09T02:53:21;99188.03;;;13.90;86.14
62952;BME280;52163;52.212;-1.002;2022-09-09T02:56:03;99192.33;;;13.84;86.37
62952;BME280;52163;52.212;-1.002;2022-09-09T02:58:29;99189.87;;;13.80;86.58
62952;BME280;52163;52.212;-1.002;2022-09-09T03:00:55;99190.36;;;13.76;86.56
62952;BME280;52163;52.212;-1.002;2022-09-09T03:03:23;99188.45;;;13.74;86.88
62952;BME280;52163;52.212;-1.002;2022-09-09T03:05:50;99187.13;;;13.69;86.56
62952;BME280;52163;52.212;-1.002;2022-09-09T03:08:16;99193.44;;;13.64;86.80
62952;BME280;52163;52.212;-1.002;2022-09-09T03:10:42;99196.42;;;13.60;86.97
62952;BME280;52163;52.212;-1.002;2022-09-09T03:13:07;99201.73;;;13.57;87.33
62952;BME280;52163;52.212;-1.002;2022-09-09T03:15:34;99197.63;;;13.55;87.49
62952;BME280;52163;52.212;-1.002;2022-09-09T03:18:00;99200.45;;;13.54;87.41
62952;BME280;52163;52.212;-1.002;2022-09-09T03:20:28;99202.70;;;13.52;87.59
62952;BME280;52163;52.212;-1.002;2022-09-09T03:22:54;99201.95;;;13.53;87.80
62952;BME280;52163;52.212;-1.002;2022-09-09T03:25:20;99201.11;;;13.52;87.73
62952;BME280;52163;52.212;-1.002;2022-09-09T03:27:46;99202.16;;;13.52;87.77
62952;BME280;52163;52.212;-1.002;2022-09-09T03:30:11;99202.65;;;13.53;87.91
62952;BME280;52163;52.212;-1.002;2022-09-09T03:32:37;99201.20;;;13.53;87.91
62952;BME280;52163;52.212;-1.002;2022-09-09T03:35:04;99200.73;;;13.54;88.06
62952;BME280;52163;52.212;-1.002;2022-09-09T03:37:29;99201.71;;;13.55;87.89
62952;BME280;52163;52.212;-1.002;2022-09-09T03:39:55;99204.13;;;13.54;88.00
62952;BME280;52163;52.212;-1.002;2022-09-09T03:42:20;99199.75;;;13.55;88.17
62952;BME280;52163;52.212;-1.002;2022-09-09T03:44:47;99202.13;;;13.57;88.25
62952;BME280;52163;52.212;-1.002;2022-09-09T03:47:18;99204.88;;;13.56;88.34
62952;BME280;52163;52.212;-1.002;2022-09-09T03:49:45;99204.37;;;13.57;88.69
62952;BME280;52163;52.212;-1.002;2022-09-09T03:52:11;99212.80;;;13.58;88.52
62952;BME280;52163;52.212;-1.002;2022-09-09T03:54:37;99213.08;;;13.59;88.70
62952;BME280;52163;52.212;-1.002;2022-09-09T03:57:03;99212.61;;;13.58;88.51
62952;BME280;52163;52.212;-1.002;2022-09-09T03:59:30;99218.91;;;13.57;88.75
62952;BME280;52163;52.212;-1.002;2022-09-09T04:01:56;99224.64;;;13.56;88.67
62952;BME280;52163;52.212;-1.002;2022-09-09T04:04:24;99226.28;;;13.54;88.62
62952;BME280;52163;52.212;-1.002;2022-09-09T04:06:51;99229.92;;;13.53;89.07
62952;BME280;52163;52.212;-1.002;2022-09-09T04:09:17;99237.56;;;13.57;89.50
62952;BME280;52163;52.212;-1.002;2022-09-09T04:11:42;99239.48;;;13.61;89.62
62952;BME280;52163;52.212;-1.002;2022-09-09T04:14:07;99239.81;;;13.67;89.87
62952;BME280;52163;52.212;-1.002;2022-09-09T04:16:34;99242.80;;;13.73;90.17
62952;BME280;52163;52.212;-1.002;2022-09-09T04:19:03;99243.12;;;13.77;89.88
62952;BME280;52163;52.212;-1.002;2022-09-09T04:21:30;99244.15;;;13.80;89.89
62952;BME280;52163;52.212;-1.002;2022-09-09T04:23:56;99245.14;;;13.83;89.95
62952;BME280;52163;52.212;-1.002;2022-09-09T04:26:22;99245.08;;;13.85;89.87
62952;BME280;52163;52.212;-1.002;2022-09-09T04:28:47;99245.42;;;13.89;90.01
62952;BME280;52163;52.212;-1.002;2022-09-09T04:31:21;99245.73;;;13.93;90.07
62952;BME280;52163;52.212;-1.002;2022-09-09T04:33:49;99246.86;;;13.98;90.16
62952;BME280;52163;52.212;-1.002;2022-09-09T04:36:15;99249.71;;;14.02;89.86
62952;BME280;52163;52.212;-1.002;2022-09-09T04:38:41;99251.94;;;14.05;90.01
62952;BME280;52163;52.212;-1.002;2022-09-09T04:41:07;99253.73;;;14.06;89.90
62952;BME280;52163;52.212;-1.002;2022-09-09T04:43:33;99253.77;;;14.08;90.14
62952;BME280;52163;52.212;-1.002;2022-09-09T04:45:59;99253.80;;;14.09;90.19
62952;BME280;52163;52.212;-1.002;2022-09-09T04:48:25;99256.10;;;14.13;90.27
62952;BME280;52163;52.212;-1.002;2022-09-09T04:50:58;99257.02;;;14.17;90.25
62952;BME280;52163;52.212;-1.002;2022-09-09T04:53:24;99256.97;;;14.19;89.88
62952;BME280;52163;52.212;-1.002;2022-09-09T04:56:13;99252.79;;;14.22;89.77
62952;BME280;52163;52.212;-1.002;2022-09-09T04:58:37;99255.52;;;14.25;89.72
62952;BME280;52163;52.212;-1.002;2022-09-09T05:01:10;99255.95;;;14.30;89.93
62952;BME280;52163;52.212;-1.002;2022-09-09T05:03:36;99261.16;;;14.33;89.69
62952;BME280;52163;52.212;-1.002;2022-09-09T05:06:10;99265.86;;;14.36;89.60
62952;BME280;52163;52.212;-1.002;2022-09-09T05:08:37;99267.90;;;14.37;89.25
62952;BME280;52163;52.212;-1.002;2022-09-09T05:11:27;99268.99;;;14.36;89.05
62952;BME280;52163;52.212;-1.002;2022-09-09T05:13:53;99273.83;;;14.36;89.08
62952;BME280;52163;52.212;-1.002;2022-09-09T05:16:20;99270.79;;;14.36;89.17
62952;BME280;52163;52.212;-1.002;2022-09-09T05:18:46;99277.81;;;14.37;89.09
62952;BME280;52163;52.212;-1.002;2022-09-09T05:21:13;99277.69;;;14.39;89.22
62952;BME280;52163;52.212;-1.002;2022-09-09T05:23:39;99280.64;;;14.41;89.49
62952;BME280;52163;52.212;-1.002;2022-09-09T05:26:06;99283.31;;;14.43;89.10
62952;BME280;52163;52.212;-1.002;2022-09-09T05:28:34;99284.27;;;14.42;88.61
62952;BME280;52163;52.212;-1.002;2022-09-09T05:31:05;99281.38;;;14.41;88.55
62952;BME280;52163;52.212;-1.002;2022-09-09T05:33:34;99282.60;;;14.41;88.69
62952;BME280;52163;52.212;-1.002;2022-09-09T05:36:05;99285.10;;;14.41;88.69
62952;BME280;52163;52.212;-1.002;2022-09-09T05:38:33;99286.05;;;14.42;88.76
62952;BME280;52163;52.212;-1.002;2022-09-09T05:40:59;99288.11;;;14.43;88.90
62952;BME280;52163;52.212;-1.002;2022-09-09T05:43:26;99289.47;;;14.42;88.49
62952;BME280;52163;52.212;-1.002;2022-09-09T05:46:22;99290.52;;;14.40;88.58
62952;BME280;52163;52.212;-1.002;2022-09-09T05:48:49;99289.44;;;14.36;88.35
62952;BME280;52163;52.212;-1.002;2022-09-09T05:51:26;99291.27;;;14.34;88.75
62952;BME280;52163;52.212;-1.002;2022-09-09T05:53:55;99296.76;;;14.32;88.68
62952;BME280;52163;52.212;-1.002;2022-09-09T05:56:25;99304.54;;;14.32;88.82
62952;BME280;52163;52.212;-1.002;2022-09-09T05:58:52;99301.71;;;14.34;88.94
62952;BME280;52163;52.212;-1.002;2022-09-09T06:01:24;99301.61;;;14.35;88.92
62952;BME280;52163;52.212;-1.002;2022-09-09T06:03:51;99303.20;;;14.35;89.02
62952;BME280;52163;52.212;-1.002;2022-09-09T06:06:25;99303.59;;;14.35;88.86
62952;BME280;52163;52.212;-1.002;2022-09-09T06:08:56;99308.05;;;14.36;88.93
62952;BME280;52163;52.212;-1.002;2022-09-09T06:11:28;99311.52;;;14.37;88.90
62952;BME280;52163;52.212;-1.002;2022-09-09T06:13:57;99312.45;;;14.39;88.95
62952;BME280;52163;52.212;-1.002;2022-09-09T06:16:24;99312.87;;;14.40;88.70
62952;BME280;52163;52.212;-1.002;2022-09-09T06:18:50;99314.05;;;14.41;88.73
62952;BME280;52163;52.212;-1.002;2022-09-09T06:23:41;99321.66;;;14.43;88.42
62952;BME280;52163;52.212;-1.002;2022-09-09T06:26:29;99324.95;;;14.46;88.36
62952;BME280;52163;52.212;-1.002;2022-09-09T06:28:55;99319.50;;;14.51;88.38
62952;BME280;52163;52.212;-1.002;2022-09-09T06:31:25;99321.17;;;14.58;88.13
62952;BME280;52163;52.212;-1.002;2022-09-09T06:33:52;99320.05;;;14.62;87.86
62952;BME280;52163;52.212;-1.002;2022-09-09T06:36:28;99321.86;;;14.67;87.57
62952;BME280;52163;52.212;-1.002;2022-09-09T06:38:55;99325.44;;;14.75;87.36
62952;BME280;52163;52.212;-1.002;2022-09-09T06:41:22;99327.73;;;14.82;87.12
62952;BME280;52163;52.212;-1.002;2022-09-09T06:43:48;99334.02;;;14.89;86.94
62952;BME280;52163;52.212;-1.002;2022-09-09T06:46:22;99337.02;;;14.94;86.52
62952;BME280;52163;52.212;-1.002;2022-09-09T06:48:48;99341.54;;;14.98;86.29
62952;BME280;52163;52.212;-1.002;2022-09-09T06:51:19;99340.39;;;15.00;86.08
62952;BME280;52163;52.212;-1.002;2022-09-09T06:53:47;99340.48;;;15.01;85.80
62952;BME280;52163;52.212;-1.002;2022-09-09T06:56:23;99344.52;;;15.02;85.31
62952;BME280;52163;52.212;-1.002;2022-09-09T06:58:50;99345.41;;;15.02;85.29
62952;BME280;52163;52.212;-1.002;2022-09-09T07:01:22;99339.92;;;15.03;85.45
62952;BME280;52163;52.212;-1.002;2022-09-09T07:03:50;99342.39;;;15.09;85.00
62952;BME280;52163;52.212;-1.002;2022-09-09T07:06:24;99347.44;;;15.10;85.06
62952;BME280;52163;52.212;-1.002;2022-09-09T07:08:58;99357.96;;;15.06;84.76
62952;BME280;52163;52.212;-1.002;2022-09-09T07:11:28;99359.77;;;15.03;84.96
62952;BME280;52163;52.212;-1.002;2022-09-09T07:13:55;99365.16;;;15.00;84.82
62952;BME280;52163;52.212;-1.002;2022-09-09T07:16:22;99364.95;;;14.98;85.00
62952;BME280;52163;52.212;-1.002;2022-09-09T07:18:51;99368.69;;;14.99;84.87
62952;BME280;52163;52.212;-1.002;2022-09-09T07:21:18;99372.50;;;14.98;84.94
62952;BME280;52163;52.212;-1.002;2022-09-09T07:23:44;99371.95;;;14.96;84.99
62952;BME280;52163;52.212;-1.002;2022-09-09T07:26:11;99373.33;;;14.94;84.75
62952;BME280;52163;52.212;-1.002;2022-09-09T07:28:37;99375.23;;;14.93;84.86
62952;BME280;52163;52.212;-1.002;2022-09-09T07:31:04;99377.77;;;14.92;84.82
62952;BME280;52163;52.212;-1.002;2022-09-09T07:33:32;99378.48;;;14.93;84.90
62952;BME280;52163;52.212;-1.002;2022-09-09T07:36:12;99373.86;;;14.98;85.13
62952;BME280;52163;52.212;-1.002;2022-09-09T07:38:43;99373.40;;;15.06;84.81
62952;BME280;52163;52.212;-1.002;2022-09-09T07:41:12;99374.85;;;15.17;84.67
62952;BME280;52163;52.212;-1.002;2022-09-09T07:43:40;99375.11;;;15.33;84.24
62952;BME280;52163;52.212;-1.002;2022-09-09T07:46:06;99373.67;;;15.49;84.22
62952;BME280;52163;52.212;-1.002;2022-09-09T07:48:32;99379.88;;;15.64;83.68
62952;BME280;52163;52.212;-1.002;2022-09-09T07:51:10;99381.30;;;15.79;83.48
62952;BME280;52163;52.212;-1.002;2022-09-09T07:53:38;99383.42;;;15.92;83.01
62952;BME280;52163;52.212;-1.002;2022-09-09T07:56:08;99386.23;;;15.99;82.51
62952;BME280;52163;52.212;-1.002;2022-09-09T07:58:36;99387.61;;;16.05;82.25
62952;BME280;52163;52.212;-1.002;2022-09-09T08:01:16;99391.96;;;16.11;82.15
62952;BME280;52163;52.212;-1.002;2022-09-09T08:03:44;99393.21;;;16.22;81.93
62952;BME280;52163;52.212;-1.002;2022-09-09T08:06:10;99396.56;;;16.38;81.74
62952;BME280;52163;52.212;-1.002;2022-09-09T08:08:37;99400.34;;;16.57;81.00
62952;BME280;52163;52.212;-1.002;2022-09-09T08:11:11;99401.70;;;16.75;80.52
62952;BME280;52163;52.212;-1.002;2022-09-09T08:13:37;99408.21;;;16.93;79.97
62952;BME280;52163;52.212;-1.002;2022-09-09T08:18:33;99412.98;;;17.15;78.77
62952;BME280;52163;52.212;-1.002;2022-09-09T08:21:08;99418.70;;;17.33;78.14
62952;BME280;52163;52.212;-1.002;2022-09-09T08:23:40;99415.65;;;17.50;77.69
62952;BME280;52163;52.212;-1.002;2022-09-09T08:26:12;99418.52;;;17.57;76.68
62952;BME280;52163;52.212;-1.002;2022-09-09T08:28:39;99418.23;;;17.61;76.19
62952;BME280;52163;52.212;-1.002;2022-09-09T08:31:11;99425.75;;;17.61;75.71
62952;BME280;52163;52.212;-1.002;2022-09-09T08:33:37;99424.73;;;17.59;75.34
62952;BME280;52163;52.212;-1.002;2022-09-09T08:36:04;99427.20;;;17.56;75.09
62952;BME280;52163;52.212;-1.002;2022-09-09T08:38:31;99421.07;;;17.48;75.22
62952;BME280;52163;52.212;-1.002;2022-09-09T08:44:23;99427.41;;;17.42;75.11
62952;BME280;52163;52.212;-1.002;2022-09-09T08:52:03;99428.48;;;17.89;74.68
62952;BME280;52163;52.212;-1.002;2022-09-09T08:54:35;99431.23;;;17.93;73.88
62952;BME280;52163;52.212;-1.002;2022-09-09T08:57:03;99431.93;;;17.87;73.20
62952;BME280;52163;52.212;-1.002;2022-09-09T08:59:37;99438.76;;;17.80;73.17
62952;BME280;52163;52.212;-1.002;2022-09-09T09:12:39;99455.95;;;18.08;72.83
62952;BME280;52163;52.212;-1.002;2022-09-09T09:15:16;99461.02;;;18.25;72.42
62952;BME280;52163;52.212;-1.002;2022-09-09T09:17:43;99462.73;;;18.35;71.88
62952;BME280;52163;52.212;-1.002;2022-09-09T09:20:14;99467.23;;;18.44;71.66
62952;BME280;52163;52.212;-1.002;2022-09-09T09:25:22;99472.11;;;18.69;71.12
62952;BME280;52163;52.212;-1.002;2022-09-09T09:28:00;99481.89;;;18.90;70.63
62952;BME280;52163;52.212;-1.002;2022-09-09T09:30:29;99486.10;;;19.02;69.63
62952;BME280;52163;52.212;-1.002;2022-09-09T09:33:05;99488.65;;;19.08;68.93
62952;BME280;52163;52.212;-1.002;2022-09-09T09:35:34;99491.73;;;19.17;68.53
62952;BME280;52163;52.212;-1.002;2022-09-09T09:37:59;99492.11;;;19.24;68.54
62952;BME280;52163;52.212;-1.002;2022-09-09T09:40:26;99492.64;;;19.31;68.35
62952;BME280;52163;52.212;-1.002;2022-09-09T09:42:57;99496.39;;;19.41;68.13
62952;BME280;52163;52.212;-1.002;2022-09-09T09:45:33;99497.31;;;19.52;67.90
62952;BME280;52163;52.212;-1.002;2022-09-09T09:48:02;99496.60;;;19.54;67.39
62952;BME280;52163;52.212;-1.002;2022-09-09T09:50:29;99500.94;;;19.51;67.11
62952;BME280;52163;52.212;-1.002;2022-09-09T09:53:00;99502.36;;;19.48;66.92
62952;BME280;52163;52.212;-1.002;2022-09-09T09:55:28;99503.95;;;19.39;67.12
62952;BME280;52163;52.212;-1.002;2022-09-09T09:58:01;99502.62;;;19.46;67.01
62952;BME280;52163;52.212;-1.002;2022-09-09T10:00:27;99501.74;;;19.66;67.16
62952;BME280;52163;52.212;-1.002;2022-09-09T10:02:52;99501.33;;;19.86;67.08
62952;BME280;52163;52.212;-1.002;2022-09-09T10:05:23;99500.20;;;20.00;66.46
62952;BME280;52163;52.212;-1.002;2022-09-09T10:08:10;99494.73;;;20.09;65.94
62952;BME280;52163;52.212;-1.002;2022-09-09T10:10:56;99497.36;;;20.21;65.64
62952;BME280;52163;52.212;-1.002;2022-09-09T10:19:25;99504.08;;;20.39;64.40
62952;BME280;52163;52.212;-1.002;2022-09-09T10:22:04;99501.42;;;20.41;63.85
62952;BME280;52163;52.212;-1.002;2022-09-09T10:30:23;99510.39;;;20.55;62.76
62952;BME280;52163;52.212;-1.002;2022-09-09T10:35:54;99512.64;;;20.62;62.85
62952;BME280;52163;52.212;-1.002;2022-09-09T10:41:16;99515.55;;;20.62;62.80
62952;BME280;52163;52.212;-1.002;2022-09-09T10:54:32;99524.04;;;20.88;62.39
62952;BME280;52163;52.212;-1.002;2022-09-09T10:57:31;99523.39;;;20.79;62.25
62952;BME280;52163;52.212;-1.002;2022-09-09T11:00:29;99528.02;;;20.71;61.91
62952;BME280;52163;52.212;-1.002;2022-09-09T11:02:56;99527.59;;;20.67;61.91
62952;BME280;52163;52.212;-1.002;2022-09-09T11:05:28;99533.66;;;20.67;61.90
62952;BME280;52163;52.212;-1.002;2022-09-09T11:08:02;99535.89;;;20.69;61.94
62952;BME280;52163;52.212;-1.002;2022-09-09T11:13:24;99534.38;;;20.84;61.47
62952;BME280;52163;52.212;-1.002;2022-09-09T11:16:08;99528.59;;;21.02;61.19
62952;BME280;52163;52.212;-1.002;2022-09-09T11:18:39;99526.77;;;21.17;61.03
62952;BME280;52163;52.212;-1.002;2022-09-09T11:21:13;99529.32;;;21.18;60.73
62952;BME280;52163;52.212;-1.002;2022-09-09T11:23:46;99531.59;;;21.08;60.41
62952;BME280;52163;52.212;-1.002;2022-09-09T11:26:27;99536.24;;;20.96;60.84
62952;BME280;52163;52.212;-1.002;2022-09-09T11:40:23;99535.42;;;20.60;61.35
62952;BME280;52163;52.212;-1.002;2022-09-09T11:43:02;99537.36;;;20.77;60.87
62952;BME280;52163;52.212;-1.002;2022-09-09T11:45:30;99537.67;;;20.99;61.03
62952;BME280;52163;52.212;-1.002;2022-09-09T11:59:49;99542.86;;;21.80;57.69
62952;BME280;52163;52.212;-1.002;2022-09-09T12:02:24;99541.48;;;22.04;56.12
62952;BME280;52163;52.212;-1.002;2022-09-09T12:05:06;99541.15;;;22.17;55.71
62952;BME280;52163;52.212;-1.002;2022-09-09T12:07:37;99539.25;;;22.40;55.17
62952;BME280;52163;52.212;-1.002;2022-09-09T12:10:20;99533.56;;;22.57;55.93
62952;BME280;52163;52.212;-1.002;2022-09-09T12:12:47;99535.95;;;22.75;56.02
62952;BME280;52163;52.212;-1.002;2022-09-09T12:17:44;99543.15;;;22.85;56.28
62952;BME280;52163;52.212;-1.002;2022-09-09T12:20:57;99542.45;;;22.79;55.92
62952;BME280;52163;52.212;-1.002;2022-09-09T12:28:22;99552.71;;;22.63;55.12
62952;BME280;52163;52.212;-1.002;2022-09-09T12:33:18;99546.77;;;22.90;54.38
62952;BME280;52163;52.212;-1.002;2022-09-09T12:35:48;99552.63;;;23.11;54.16
62952;BME280;52163;52.212;-1.002;2022-09-09T12:38:40;99553.28;;;23.33;53.85
62952;BME280;52163;52.212;-1.002;2022-09-09T12:41:22;99555.13;;;23.52;53.58
62952;BME280;52163;52.212;-1.002;2022-09-09T12:43:48;99557.59;;;23.45;53.27
62952;BME280;52163;52.212;-1.002;2022-09-09T12:46:24;99554.25;;;23.11;53.86
62952;BME280;52163;52.212;-1.002;2022-09-09T12:48:53;99556.02;;;22.76;53.82
62952;BME280;52163;52.212;-1.002;2022-09-09T12:51:30;99553.03;;;22.51;54.02
62952;BME280;52163;52.212;-1.002;2022-09-09T12:53:58;99550.89;;;22.34;54.31
62952;BME280;52163;52.212;-1.002;2022-09-09T12:56:27;99548.70;;;22.25;54.98
62952;BME280;52163;52.212;-1.002;2022-09-09T12:58:56;99557.18;;;22.10;54.95
62952;BME280;52163;52.212;-1.002;2022-09-09T13:01:32;99567.95;;;21.89;55.48
62952;BME280;52163;52.212;-1.002;2022-09-09T13:03:59;99577.61;;;21.53;57.88
62952;BME280;52163;52.212;-1.002;2022-09-09T13:06:26;99591.58;;;21.09;60.07
62952;BME280;52163;52.212;-1.002;2022-09-09T13:08:54;99596.58;;;20.68;62.04
62952;BME280;52163;52.212;-1.002;2022-09-09T13:14:00;99604.02;;;20.02;65.14
62952;BME280;52163;52.212;-1.002;2022-09-09T13:16:32;99598.34;;;19.82;66.46
62952;BME280;52163;52.212;-1.002;2022-09-09T13:19:07;99598.60;;;19.72;67.16
62952;BME280;52163;52.212;-1.002;2022-09-09T13:21:36;99596.24;;;19.72;68.61
62952;BME280;52163;52.212;-1.002;2022-09-09T13:24:04;99592.54;;;19.83;69.97
62952;BME280;52163;52.212;-1.002;2022-09-09T13:26:33;99598.23;;;19.96;70.37
62952;BME280;52163;52.212;-1.002;2022-09-09T13:29:17;99603.14;;;20.07;70.12
62952;BME280;52163;52.212;-1.002;2022-09-09T13:31:46;99606.42;;;20.22;69.86
62952;BME280;52163;52.212;-1.002;2022-09-09T13:34:13;99603.14;;;20.31;69.70
62952;BME280;52163;52.212;-1.002;2022-09-09T13:36:39;99599.74;;;20.44;69.50
62952;BME280;52163;52.212;-1.002;2022-09-09T13:39:15;99596.60;;;20.60;68.90
62952;BME280;52163;52.212;-1.002;2022-09-09T13:41:43;99591.87;;;20.81;68.74
62952;BME280;52163;52.212;-1.002;2022-09-09T13:44:23;99592.34;;;21.04;68.71
62952;BME280;52163;52.212;-1.002;2022-09-09T13:47:04;99587.40;;;21.23;68.79
62952;BME280;52163;52.212;-1.002;2022-09-09T13:49:30;99594.02;;;21.32;69.06
62952;BME280;52163;52.212;-1.002;2022-09-09T13:52:15;99600.19;;;21.29;69.29
62952;BME280;52163;52.212;-1.002;2022-09-09T13:54:42;99604.40;;;21.13;68.49
62952;BME280;52163;52.212;-1.002;2022-09-09T13:57:16;99611.11;;;20.90;68.36
62952;BME280;52163;52.212;-1.002;2022-09-09T13:59:46;99617.00;;;20.62;68.31
62952;BME280;52163;52.212;-1.002;2022-09-09T14:02:13;99629.54;;;20.29;69.01
62952;BME280;52163;52.212;-1.002;2022-09-09T14:04:39;99633.42;;;19.92;70.21
62952;BME280;52163;52.212;-1.002;2022-09-09T14:07:11;99632.33;;;19.58;71.15
62952;BME280;52163;52.212;-1.002;2022-09-09T14:09:38;99637.34;;;19.29;71.75
62952;BME280;52163;52.212;-1.002;2022-09-09T14:12:04;99636.68;;;19.07;72.73
62952;BME280;52163;52.212;-1.002;2022-09-09T14:14:30;99634.00;;;18.94;73.41
62952;BME280;52163;52.212;-1.002;2022-09-09T14:16:55;99635.67;;;18.95;74.25
62952;BME280;52163;52.212;-1.002;2022-09-09T14:19:21;99638.21;;;19.10;74.64
62952;BME280;52163;52.212;-1.002;2022-09-09T14:21:46;99641.52;;;19.22;73.54
62952;BME280;52163;52.212;-1.002;2022-09-09T14:24:12;99643.33;;;19.25;73.48
62952;BME280;52163;52.212;-1.002;2022-09-09T14:26:37;99651.41;;;19.27;73.85
62952;BME280;52163;52.212;-1.002;2022-09-09T14:29:03;99654.42;;;19.14;74.97
62952;BME280;52163;52.212;-1.002;2022-09-09T14:31:28;99655.95;;;18.98;76.45
62952;BME280;52163;52.212;-1.002;2022-09-09T14:33:54;99654.61;;;18.84;76.44
62952;BME280;52163;52.212;-1.002;2022-09-09T14:36:20;99654.63;;;18.89;77.34
62952;BME280;52163;52.212;-1.002;2022-09-09T14:38:45;99659.30;;;19.08;77.31
62952;BME280;52163;52.212;-1.002;2022-09-09T14:41:16;99660.67;;;19.29;77.61
62952;BME280;52163;52.212;-1.002;2022-09-09T14:43:42;99664.84;;;19.41;77.80
62952;BME280;52163;52.212;-1.002;2022-09-09T14:46:15;99663.40;;;19.43;77.80
62952;BME280;52163;52.212;-1.002;2022-09-09T14:48:42;99660.64;;;19.31;77.70
62952;BME280;52163;52.212;-1.002;2022-09-09T14:51:21;99663.64;;;19.13;77.25
62952;BME280;52163;52.212;-1.002;2022-09-09T14:53:50;99678.85;;;18.85;76.46
62952;BME280;52163;52.212;-1.002;2022-09-09T14:56:18;99686.84;;;18.45;76.30
62952;BME280;52163;52.212;-1.002;2022-09-09T14:58:44;99681.75;;;18.08;77.20
62952;BME280;52163;52.212;-1.002;2022-09-09T15:01:18;99678.83;;;17.81;77.94
62952;BME280;52163;52.212;-1.002;2022-09-09T15:03:50;99675.08;;;17.57;78.54
62952;BME280;52163;52.212;-1.002;2022-09-09T15:06:16;99672.86;;;17.38;78.97
62952;BME280;52163;52.212;-1.002;2022-09-09T15:08:43;99672.34;;;17.20;78.61
62952;BME280;52163;52.212;-1.002;2022-09-09T15:11:10;99669.45;;;17.01;78.53
62952;BME280;52163;52.212;-1.002;2022-09-09T15:13:37;99664.71;;;16.88;79.22
62952;BME280;52163;52.212;-1.002;2022-09-09T15:16:05;99664.98;;;16.76;79.03
62952;BME280;52163;52.212;-1.002;2022-09-09T15:18:31;99667.80;;;16.69;79.02
62952;BME280;52163;52.212;-1.002;2022-09-09T15:20:59;99668.89;;;16.67;79.37